Roschino International Airport
USTR : now visible

Airfield :











YOU CAN JOIN US ON...

 
LOGIN :

Register | Disclaimer

   EN    FR    IT 

 









Legend :    VFR   Marginal VFR   IFR   Intensive IFR   Very Intensive IFR
Visi :
Ceiling :
>= 8 km
>= 3000ft
5 to 8 km
1000 to 3000 ft
1500m to 5 km
500 to 1000 ft
800 to 1500m
200 to 500 ft
< 800m
< 200 ft
Symbols :   Thunderstorms  Fog  Heavy snow  Heavy precipitations  Wind > 20 kt






- Airport Elevation : 378 ft
- IATA code : TJM


USTR - Roschino International

CURRENT METAR :
  • 090100Z 25005MPS CAVOK M05/M12 Q1010 R21/450554 R30/499429 NOSIG RMK QFE748/0998

EXPIRED METARs :
  • 090030Z 24005MPS CAVOK M05/M12 Q1010 R21/450554 R30/499429 NOSIG RMK QFE748/0997
  • 090000Z 25005MPS CAVOK M04/M12 Q1009 R21/450554 R30/499429 NOSIG RMK QFE747/0997
  • 082330Z 24005MPS CAVOK M04/M12 Q1009 R21/450554 R30/499429 NOSIG RMK QFE747/0996
  • 082300Z 24006MPS CAVOK M04/M12 Q1008 R21/450554 R30/499429 NOSIG RMK QFE747/0996
  • 082230Z 25006MPS CAVOK M04/M12 Q1008 R21/450554 R30/499429 NOSIG RMK QFE747/0996

TAF TAF USTR
Valid from the 09 at 00:00 until the 10 at 00:00 UTC


082244Z 0900/0924 25006G12MPS 9999 DRSN SCT020
TEMPO 0900/0903 4000 -SHSN BLSN BKN015CB
BECMG 0910/0912 20003G08MPS
TEMPO 0915/0924 3100 BR SCT011



MET'MAP, your aeronautical weather chart ! - Copyright ORBIFLY December 2007 - Disclaimer

ORBIFLY MET'MAP TEAM :

Programming & Development : Alexandra Zaïnal
Concept & original design : Baudouin d'Aumeries
Assistance for programming : Marc-Olivier Méhu
Technical & hardware support : Manuel Goepfert

Contact : metmap@orbifly.com




SOURCES & CREDITS :

   NOAA       Earth
Advisory